sensor_id;sensor_type;location;lat;lon;timestamp;temperature;humidity
21267;DHT22;10791;53.108;18.326;2023-09-19T00:00:22;19.30;99.90
21267;DHT22;10791;53.108;18.326;2023-09-19T00:05:46;19.20;99.90
21267;DHT22;10791;53.108;18.326;2023-09-19T00:10:50;19.10;99.90
21267;DHT22;10791;53.108;18.326;2023-09-19T00:15:54;19.00;99.90
21267;DHT22;10791;53.108;18.326;2023-09-19T00:20:59;18.90;99.90
21267;DHT22;10791;53.108;18.326;2023-09-19T00:26:02;18.80;99.90
21267;DHT22;10791;53.108;18.326;2023-09-19T00:31:08;18.80;99.90
21267;DHT22;10791;53.108;18.326;2023-09-19T00:36:11;18.80;99.90
21267;DHT22;10791;53.108;18.326;2023-09-19T00:41:15;18.80;99.90
21267;DHT22;10791;53.108;18.326;2023-09-19T00:46:18;18.80;99.90
21267;DHT22;10791;53.108;18.326;2023-09-19T00:51:21;18.80;99.90
21267;DHT22;10791;53.108;18.326;2023-09-19T00:56:25;18.70;99.90
21267;DHT22;10791;53.108;18.326;2023-09-19T01:01:28;18.70;99.90
21267;DHT22;10791;53.108;18.326;2023-09-19T01:06:32;18.60;99.90
21267;DHT22;10791;53.108;18.326;2023-09-19T01:11:43;18.50;99.90
21267;DHT22;10791;53.108;18.326;2023-09-19T01:16:57;18.40;99.90
21267;DHT22;10791;53.108;18.326;2023-09-19T01:32:56;18.30;99.90
21267;DHT22;10791;53.108;18.326;2023-09-19T01:38:00;18.20;99.90
21267;DHT22;10791;53.108;18.326;2023-09-19T01:48:25;18.00;99.90
21267;DHT22;10791;53.108;18.326;2023-09-19T01:58:59;18.00;99.90
21267;DHT22;10791;53.108;18.326;2023-09-19T02:04:07;18.00;99.90
21267;DHT22;10791;53.108;18.326;2023-09-19T02:09:10;18.10;99.90
21267;DHT22;10791;53.108;18.326;2023-09-19T02:14:14;18.20;99.90
21267;DHT22;10791;53.108;18.326;2023-09-19T02:19:17;18.30;99.90
21267;DHT22;10791;53.108;18.326;2023-09-19T02:24:21;18.50;99.90
21267;DHT22;10791;53.108;18.326;2023-09-19T02:29:24;18.60;99.90
21267;DHT22;10791;53.108;18.326;2023-09-19T02:34:27;18.80;99.90
21267;DHT22;10791;53.108;18.326;2023-09-19T02:39:34;18.90;99.90
21267;DHT22;10791;53.108;18.326;2023-09-19T02:44:37;19.00;99.90
21267;DHT22;10791;53.108;18.326;2023-09-19T02:49:41;19.00;99.90
21267;DHT22;10791;53.108;18.326;2023-09-19T02:54:45;19.00;99.90
21267;DHT22;10791;53.108;18.326;2023-09-19T02:59:49;19.00;99.90
21267;DHT22;10791;53.108;18.326;2023-09-19T03:04:52;19.10;99.90
21267;DHT22;10791;53.108;18.326;2023-09-19T03:09:55;19.20;99.90
21267;DHT22;10791;53.108;18.326;2023-09-19T03:14:58;19.20;99.90
21267;DHT22;10791;53.108;18.326;2023-09-19T03:20:03;19.20;99.90
21267;DHT22;10791;53.108;18.326;2023-09-19T03:25:17;19.20;99.90
21267;DHT22;10791;53.108;18.326;2023-09-19T03:30:35;19.20;99.90
21267;DHT22;10791;53.108;18.326;2023-09-19T03:35:54;19.20;99.90
21267;DHT22;10791;53.108;18.326;2023-09-19T03:40:58;19.00;99.90
21267;DHT22;10791;53.108;18.326;2023-09-19T03:46:02;18.80;99.90
21267;DHT22;10791;53.108;18.326;2023-09-19T03:51:07;18.70;99.90
21267;DHT22;10791;53.108;18.326;2023-09-19T03:56:10;18.70;99.90
21267;DHT22;10791;53.108;18.326;2023-09-19T04:01:13;18.50;99.90
21267;DHT22;10791;53.108;18.326;2023-09-19T04:06:17;18.50;99.90
21267;DHT22;10791;53.108;18.326;2023-09-19T04:11:20;18.50;99.90
21267;DHT22;10791;53.108;18.326;2023-09-19T04:16:23;18.50;99.90
21267;DHT22;10791;53.108;18.326;2023-09-19T04:21:27;18.50;99.90
21267;DHT22;10791;53.108;18.326;2023-09-19T04:26:31;18.50;99.90
21267;DHT22;10791;53.108;18.326;2023-09-19T04:31:34;18.50;99.90
21267;DHT22;10791;53.108;18.326;2023-09-19T04:36:37;18.50;99.90
21267;DHT22;10791;53.108;18.326;2023-09-19T04:41:40;18.50;99.90
21267;DHT22;10791;53.108;18.326;2023-09-19T04:46:44;18.40;99.90
21267;DHT22;10791;53.108;18.326;2023-09-19T04:51:49;18.50;99.90
21267;DHT22;10791;53.108;18.326;2023-09-19T04:56:52;18.50;99.90
21267;DHT22;10791;53.108;18.326;2023-09-19T05:01:55;18.50;99.90
21267;DHT22;10791;53.108;18.326;2023-09-19T05:06:59;18.50;99.90
21267;DHT22;10791;53.108;18.326;2023-09-19T05:12:04;18.50;99.90
21267;DHT22;10791;53.108;18.326;2023-09-19T05:17:07;18.50;99.90
21267;DHT22;10791;53.108;18.326;2023-09-19T05:22:11;18.50;99.90
21267;DHT22;10791;53.108;18.326;2023-09-19T05:27:15;18.50;99.90
21267;DHT22;10791;53.108;18.326;2023-09-19T05:32:21;18.50;99.90
21267;DHT22;10791;53.108;18.326;2023-09-19T05:37:26;18.50;99.90
21267;DHT22;10791;53.108;18.326;2023-09-19T05:42:29;18.50;99.90
21267;DHT22;10791;53.108;18.326;2023-09-19T05:47:33;18.50;99.90
21267;DHT22;10791;53.108;18.326;2023-09-19T05:52:40;18.50;99.90
21267;DHT22;10791;53.108;18.326;2023-09-19T05:57:50;18.50;99.90
21267;DHT22;10791;53.108;18.326;2023-09-19T06:02:56;18.50;99.90
21267;DHT22;10791;53.108;18.326;2023-09-19T06:08:00;18.50;99.90
21267;DHT22;10791;53.108;18.326;2023-09-19T06:13:04;18.50;99.90
21267;DHT22;10791;53.108;18.326;2023-09-19T06:18:11;18.50;99.90
21267;DHT22;10791;53.108;18.326;2023-09-19T06:23:18;18.50;99.90
21267;DHT22;10791;53.108;18.326;2023-09-19T06:28:23;18.50;99.90
21267;DHT22;10791;53.108;18.326;2023-09-19T06:33:27;18.60;99.90
21267;DHT22;10791;53.108;18.326;2023-09-19T06:38:30;18.50;99.90
21267;DHT22;10791;53.108;18.326;2023-09-19T06:43:34;18.40;99.90
21267;DHT22;10791;53.108;18.326;2023-09-19T06:48:38;18.40;99.90
21267;DHT22;10791;53.108;18.326;2023-09-19T06:53:41;18.30;99.90
21267;DHT22;10791;53.108;18.326;2023-09-19T06:58:44;18.20;99.90
21267;DHT22;10791;53.108;18.326;2023-09-19T07:03:47;18.20;99.90
21267;DHT22;10791;53.108;18.326;2023-09-19T07:08:51;18.20;99.90
21267;DHT22;10791;53.108;18.326;2023-09-19T07:13:54;18.20;99.90
21267;DHT22;10791;53.108;18.326;2023-09-19T07:18:57;18.30;99.90
21267;DHT22;10791;53.108;18.326;2023-09-19T07:24:01;18.20;99.90
21267;DHT22;10791;53.108;18.326;2023-09-19T07:29:07;18.30;99.90
21267;DHT22;10791;53.108;18.326;2023-09-19T07:34:12;18.30;99.90
21267;DHT22;10791;53.108;18.326;2023-09-19T07:39:15;18.50;99.90
21267;DHT22;10791;53.108;18.326;2023-09-19T07:44:35;18.60;99.90
21267;DHT22;10791;53.108;18.326;2023-09-19T07:49:42;18.70;99.90
21267;DHT22;10791;53.108;18.326;2023-09-19T07:54:45;18.80;99.90
21267;DHT22;10791;53.108;18.326;2023-09-19T07:59:51;18.90;99.90
21267;DHT22;10791;53.108;18.326;2023-09-19T08:04:55;19.00;99.90
21267;DHT22;10791;53.108;18.326;2023-09-19T08:10:00;19.10;99.90
21267;DHT22;10791;53.108;18.326;2023-09-19T08:15:04;19.10;99.90
21267;DHT22;10791;53.108;18.326;2023-09-19T08:20:09;19.10;99.90
21267;DHT22;10791;53.108;18.326;2023-09-19T08:25:21;19.00;99.90
21267;DHT22;10791;53.108;18.326;2023-09-19T08:30:24;19.00;99.90
21267;DHT22;10791;53.108;18.326;2023-09-19T08:35:30;18.90;99.90
21267;DHT22;10791;53.108;18.326;2023-09-19T08:40:37;18.90;99.90
21267;DHT22;10791;53.108;18.326;2023-09-19T08:45:42;18.90;99.90
21267;DHT22;10791;53.108;18.326;2023-09-19T08:50:51;18.90;99.90
21267;DHT22;10791;53.108;18.326;2023-09-19T08:55:55;19.00;99.90
21267;DHT22;10791;53.108;18.326;2023-09-19T09:01:00;19.10;99.90
21267;DHT22;10791;53.108;18.326;2023-09-19T09:06:04;19.50;99.90
21267;DHT22;10791;53.108;18.326;2023-09-19T09:11:08;19.80;99.90
21267;DHT22;10791;53.108;18.326;2023-09-19T09:16:14;19.90;99.90
21267;DHT22;10791;53.108;18.326;2023-09-19T09:21:25;20.20;99.90
21267;DHT22;10791;53.108;18.326;2023-09-19T09:26:46;20.60;99.90
21267;DHT22;10791;53.108;18.326;2023-09-19T09:31:50;20.90;99.90
21267;DHT22;10791;53.108;18.326;2023-09-19T09:36:53;21.20;99.90
21267;DHT22;10791;53.108;18.326;2023-09-19T09:41:56;21.20;99.90
21267;DHT22;10791;53.108;18.326;2023-09-19T09:47:02;21.00;99.90
21267;DHT22;10791;53.108;18.326;2023-09-19T09:52:24;20.80;99.90
21267;DHT22;10791;53.108;18.326;2023-09-19T09:57:28;20.90;99.90
21267;DHT22;10791;53.108;18.326;2023-09-19T10:02:51;21.00;99.90
21267;DHT22;10791;53.108;18.326;2023-09-19T10:07:55;21.10;99.90
21267;DHT22;10791;53.108;18.326;2023-09-19T10:13:13;21.10;99.90
21267;DHT22;10791;53.108;18.326;2023-09-19T10:18:22;21.10;99.90
21267;DHT22;10791;53.108;18.326;2023-09-19T10:23:28;21.10;99.90
21267;DHT22;10791;53.108;18.326;2023-09-19T10:28:37;21.10;99.90
21267;DHT22;10791;53.108;18.326;2023-09-19T10:33:42;21.40;99.90
21267;DHT22;10791;53.108;18.326;2023-09-19T10:38:48;21.80;99.90
21267;DHT22;10791;53.108;18.326;2023-09-19T10:43:53;22.00;99.90
21267;DHT22;10791;53.108;18.326;2023-09-19T10:49:01;22.00;99.90
21267;DHT22;10791;53.108;18.326;2023-09-19T10:54:12;21.80;99.90
21267;DHT22;10791;53.108;18.326;2023-09-19T10:59:18;21.80;99.90
21267;DHT22;10791;53.108;18.326;2023-09-19T11:04:29;21.80;99.90
21267;DHT22;10791;53.108;18.326;2023-09-19T11:09:52;22.00;99.90
21267;DHT22;10791;53.108;18.326;2023-09-19T11:14:58;22.10;99.90
21267;DHT22;10791;53.108;18.326;2023-09-19T11:30:39;22.00;99.90
21267;DHT22;10791;53.108;18.326;2023-09-19T11:36:18;22.20;99.90
21267;DHT22;10791;53.108;18.326;2023-09-19T11:41:40;22.70;99.90
21267;DHT22;10791;53.108;18.326;2023-09-19T11:46:53;22.60;99.90
21267;DHT22;10791;53.108;18.326;2023-09-19T11:51:59;22.80;99.90
21267;DHT22;10791;53.108;18.326;2023-09-19T11:57:04;23.00;99.70
21267;DHT22;10791;53.108;18.326;2023-09-19T12:02:07;23.40;96.80
21267;DHT22;10791;53.108;18.326;2023-09-19T12:07:15;23.80;92.50
21267;DHT22;10791;53.108;18.326;2023-09-19T12:12:28;23.90;94.00
21267;DHT22;10791;53.108;18.326;2023-09-19T12:17:40;23.60;94.50
21267;DHT22;10791;53.108;18.326;2023-09-19T12:22:46;23.20;95.20
21267;DHT22;10791;53.108;18.326;2023-09-19T12:27:50;23.00;94.00
21267;DHT22;10791;53.108;18.326;2023-09-19T12:33:20;23.10;95.90
21267;DHT22;10791;53.108;18.326;2023-09-19T12:38:27;23.30;96.50
21267;DHT22;10791;53.108;18.326;2023-09-19T12:43:38;23.50;94.90
21267;DHT22;10791;53.108;18.326;2023-09-19T12:48:43;23.30;90.40
21267;DHT22;10791;53.108;18.326;2023-09-19T12:53:57;23.30;90.00
21267;DHT22;10791;53.108;18.326;2023-09-19T12:59:00;23.50;84.10
21267;DHT22;10791;53.108;18.326;2023-09-19T13:04:17;23.70;81.50
21267;DHT22;10791;53.108;18.326;2023-09-19T13:09:29;23.30;84.90
21267;DHT22;10791;53.108;18.326;2023-09-19T13:14:38;23.10;86.20
21267;DHT22;10791;53.108;18.326;2023-09-19T13:19:48;23.00;83.00
21267;DHT22;10791;53.108;18.326;2023-09-19T13:24:53;22.90;77.10
21267;DHT22;10791;53.108;18.326;2023-09-19T13:29:56;22.90;80.70
21267;DHT22;10791;53.108;18.326;2023-09-19T13:35:00;23.10;75.20
21267;DHT22;10791;53.108;18.326;2023-09-19T13:40:05;23.30;76.80
21267;DHT22;10791;53.108;18.326;2023-09-19T13:45:08;23.60;79.50
21267;DHT22;10791;53.108;18.326;2023-09-19T13:50:15;23.90;77.80
21267;DHT22;10791;53.108;18.326;2023-09-19T13:55:20;23.70;76.60
21267;DHT22;10791;53.108;18.326;2023-09-19T14:00:24;23.70;77.50
21267;DHT22;10791;53.108;18.326;2023-09-19T14:05:27;23.80;77.00
21267;DHT22;10791;53.108;18.326;2023-09-19T14:10:31;23.90;76.00
21267;DHT22;10791;53.108;18.326;2023-09-19T14:15:36;24.20;75.70
21267;DHT22;10791;53.108;18.326;2023-09-19T14:20:41;24.40;75.20
21267;DHT22;10791;53.108;18.326;2023-09-19T14:25:44;24.40;73.60
21267;DHT22;10791;53.108;18.326;2023-09-19T14:30:47;23.90;74.40
21267;DHT22;10791;53.108;18.326;2023-09-19T14:35:52;23.50;74.80
21267;DHT22;10791;53.108;18.326;2023-09-19T14:41:03;23.30;76.90
21267;DHT22;10791;53.108;18.326;2023-09-19T14:46:07;23.40;76.00
21267;DHT22;10791;53.108;18.326;2023-09-19T14:51:14;23.60;75.30
21267;DHT22;10791;53.108;18.326;2023-09-19T14:56:17;23.60;75.10
21267;DHT22;10791;53.108;18.326;2023-09-19T15:01:21;23.20;77.00
21267;DHT22;10791;53.108;18.326;2023-09-19T15:06:25;23.00;78.10
21267;DHT22;10791;53.108;18.326;2023-09-19T15:11:29;23.00;78.90
21267;DHT22;10791;53.108;18.326;2023-09-19T15:16:32;23.00;77.90
21267;DHT22;10791;53.108;18.326;2023-09-19T15:21:36;23.00;79.20
21267;DHT22;10791;53.108;18.326;2023-09-19T15:26:43;22.70;79.40
21267;DHT22;10791;53.108;18.326;2023-09-19T15:31:48;22.30;80.60
21267;DHT22;10791;53.108;18.326;2023-09-19T15:36:51;22.00;82.00
21267;DHT22;10791;53.108;18.326;2023-09-19T15:41:54;21.80;82.80
21267;DHT22;10791;53.108;18.326;2023-09-19T15:46:58;21.70;83.90
21267;DHT22;10791;53.108;18.326;2023-09-19T15:52:01;21.40;84.90
21267;DHT22;10791;53.108;18.326;2023-09-19T15:57:06;21.20;85.80
21267;DHT22;10791;53.108;18.326;2023-09-19T16:02:09;21.10;87.00
21267;DHT22;10791;53.108;18.326;2023-09-19T16:07:13;20.90;89.00
21267;DHT22;10791;53.108;18.326;2023-09-19T16:12:16;20.70;89.30
21267;DHT22;10791;53.108;18.326;2023-09-19T16:17:19;20.50;90.40
21267;DHT22;10791;53.108;18.326;2023-09-19T16:22:22;20.40;91.10
21267;DHT22;10791;53.108;18.326;2023-09-19T16:27:26;20.30;91.50
21267;DHT22;10791;53.108;18.326;2023-09-19T16:32:29;20.10;91.90
21267;DHT22;10791;53.108;18.326;2023-09-19T16:37:32;19.90;92.90
21267;DHT22;10791;53.108;18.326;2023-09-19T16:42:35;19.70;93.60
21267;DHT22;10791;53.108;18.326;2023-09-19T16:47:41;19.60;94.20
21267;DHT22;10791;53.108;18.326;2023-09-19T16:52:45;19.40;94.80
21267;DHT22;10791;53.108;18.326;2023-09-19T16:57:48;19.30;96.20
21267;DHT22;10791;53.108;18.326;2023-09-19T17:02:51;19.20;97.40
21267;DHT22;10791;53.108;18.326;2023-09-19T17:07:58;18.90;98.20
21267;DHT22;10791;53.108;18.326;2023-09-19T17:13:04;18.70;99.60
21267;DHT22;10791;53.108;18.326;2023-09-19T17:18:11;18.50;99.90
21267;DHT22;10791;53.108;18.326;2023-09-19T17:23:14;18.30;99.90
21267;DHT22;10791;53.108;18.326;2023-09-19T17:28:17;18.00;99.90
21267;DHT22;10791;53.108;18.326;2023-09-19T17:33:21;17.90;99.90
21267;DHT22;10791;53.108;18.326;2023-09-19T17:38:25;17.60;99.90
21267;DHT22;10791;53.108;18.326;2023-09-19T17:43:28;17.30;99.90
21267;DHT22;10791;53.108;18.326;2023-09-19T17:48:31;17.10;99.90
21267;DHT22;10791;53.108;18.326;2023-09-19T17:53:36;16.90;99.90
21267;DHT22;10791;53.108;18.326;2023-09-19T17:58:41;16.70;99.90
21267;DHT22;10791;53.108;18.326;2023-09-19T18:03:47;16.60;99.90
21267;DHT22;10791;53.108;18.326;2023-09-19T18:08:52;16.40;99.90
21267;DHT22;10791;53.108;18.326;2023-09-19T18:13:57;16.20;99.90
21267;DHT22;10791;53.108;18.326;2023-09-19T18:19:03;16.10;99.90
21267;DHT22;10791;53.108;18.326;2023-09-19T18:24:08;16.00;99.90
21267;DHT22;10791;53.108;18.326;2023-09-19T18:29:17;15.80;99.90
21267;DHT22;10791;53.108;18.326;2023-09-19T18:34:21;15.70;99.90
21267;DHT22;10791;53.108;18.326;2023-09-19T18:39:24;15.50;99.90
21267;DHT22;10791;53.108;18.326;2023-09-19T18:44:28;15.30;99.90
21267;DHT22;10791;53.108;18.326;2023-09-19T18:49:32;15.20;99.90
21267;DHT22;10791;53.108;18.326;2023-09-19T18:54:37;15.10;99.90
21267;DHT22;10791;53.108;18.326;2023-09-19T18:59:42;15.10;99.90
21267;DHT22;10791;53.108;18.326;2023-09-19T19:04:47;15.00;99.90
21267;DHT22;10791;53.108;18.326;2023-09-19T19:09:51;14.90;99.90
21267;DHT22;10791;53.108;18.326;2023-09-19T19:14:55;14.70;99.90
21267;DHT22;10791;53.108;18.326;2023-09-19T19:19:58;14.50;99.90
21267;DHT22;10791;53.108;18.326;2023-09-19T19:25:03;14.30;99.90
21267;DHT22;10791;53.108;18.326;2023-09-19T19:30:13;14.00;99.90
21267;DHT22;10791;53.108;18.326;2023-09-19T19:35:20;13.80;99.90
21267;DHT22;10791;53.108;18.326;2023-09-19T19:40:25;13.60;99.90
21267;DHT22;10791;53.108;18.326;2023-09-19T19:45:34;13.50;99.90
21267;DHT22;10791;53.108;18.326;2023-09-19T19:50:55;13.40;99.90
21267;DHT22;10791;53.108;18.326;2023-09-19T19:56:00;13.30;99.90
21267;DHT22;10791;53.108;18.326;2023-09-19T20:01:09;13.20;99.90
21267;DHT22;10791;53.108;18.326;2023-09-19T20:06:13;13.10;99.90
21267;DHT22;10791;53.108;18.326;2023-09-19T20:11:17;12.80;99.90
21267;DHT22;10791;53.108;18.326;2023-09-19T20:16:21;12.80;99.90
21267;DHT22;10791;53.108;18.326;2023-09-19T20:21:25;12.70;99.90
21267;DHT22;10791;53.108;18.326;2023-09-19T20:26:38;12.60;99.90
21267;DHT22;10791;53.108;18.326;2023-09-19T20:32:08;12.50;99.90
21267;DHT22;10791;53.108;18.326;2023-09-19T20:37:12;12.50;99.90
21267;DHT22;10791;53.108;18.326;2023-09-19T20:42:15;12.40;99.90
21267;DHT22;10791;53.108;18.326;2023-09-19T20:47:19;12.30;99.90
21267;DHT22;10791;53.108;18.326;2023-09-19T20:58:38;12.10;99.90
21267;DHT22;10791;53.108;18.326;2023-09-19T21:04:05;12.00;99.90
21267;DHT22;10791;53.108;18.326;2023-09-19T21:09:39;11.80;99.90
21267;DHT22;10791;53.108;18.326;2023-09-19T21:14:44;11.70;99.90
21267;DHT22;10791;53.108;18.326;2023-09-19T21:19:49;11.40;99.90
21267;DHT22;10791;53.108;18.326;2023-09-19T21:24:54;11.30;99.90
21267;DHT22;10791;53.108;18.326;2023-09-19T21:29:58;11.20;99.90
21267;DHT22;10791;53.108;18.326;2023-09-19T21:35:02;11.20;99.90
21267;DHT22;10791;53.108;18.326;2023-09-19T21:40:08;11.20;99.90
21267;DHT22;10791;53.108;18.326;2023-09-19T21:45:12;11.20;99.90
21267;DHT22;10791;53.108;18.326;2023-09-19T21:50:16;11.10;99.90
21267;DHT22;10791;53.108;18.326;2023-09-19T21:55:26;11.10;99.90
21267;DHT22;10791;53.108;18.326;2023-09-19T22:00:29;11.00;99.90
21267;DHT22;10791;53.108;18.326;2023-09-19T22:05:41;10.90;99.90
21267;DHT22;10791;53.108;18.326;2023-09-19T22:10:48;10.80;99.90
21267;DHT22;10791;53.108;18.326;2023-09-19T22:15:57;10.80;99.90
21267;DHT22;10791;53.108;18.326;2023-09-19T22:21:01;10.70;99.90
21267;DHT22;10791;53.108;18.326;2023-09-19T22:26:16;10.60;99.90
21267;DHT22;10791;53.108;18.326;2023-09-19T22:31:26;10.60;99.90
21267;DHT22;10791;53.108;18.326;2023-09-19T22:36:39;10.50;99.90
21267;DHT22;10791;53.108;18.326;2023-09-19T22:41:47;10.50;99.90
21267;DHT22;10791;53.108;18.326;2023-09-19T22:46:50;10.40;99.90
21267;DHT22;10791;53.108;18.326;2023-09-19T22:51:54;10.30;99.90
21267;DHT22;10791;53.108;18.326;2023-09-19T22:57:02;10.30;99.90
21267;DHT22;10791;53.108;18.326;2023-09-19T23:02:05;10.20;99.90
21267;DHT22;10791;53.108;18.326;2023-09-19T23:07:11;10.20;99.90
21267;DHT22;10791;53.108;18.326;2023-09-19T23:12:14;10.10;99.90
21267;DHT22;10791;53.108;18.326;2023-09-19T23:17:22;10.00;99.90
21267;DHT22;10791;53.108;18.326;2023-09-19T23:22:25;9.90;99.90
21267;DHT22;10791;53.108;18.326;2023-09-19T23:27:31;9.80;99.90
21267;DHT22;10791;53.108;18.326;2023-09-19T23:32:38;9.80;99.90
21267;DHT22;10791;53.108;18.326;2023-09-19T23:37:42;9.80;99.90
21267;DHT22;10791;53.108;18.326;2023-09-19T23:42:45;9.80;99.90
21267;DHT22;10791;53.108;18.326;2023-09-19T23:47:48;9.70;99.90
21267;DHT22;10791;53.108;18.326;2023-09-19T23:52:53;9.70;99.90
21267;DHT22;10791;53.108;18.326;2023-09-19T23:57:57;9.60;99.90
